createdAt,value
2023-02-22T00:01:28.345Z,1.30
2023-02-22T00:03:56.401Z,1.30
2023-02-22T00:06:25.842Z,1.30
2023-02-22T00:08:54.096Z,0.90
2023-02-22T00:11:22.187Z,1.30
2023-02-22T00:13:50.666Z,1.30
2023-02-22T00:16:22.025Z,1.20
2023-02-22T00:18:50.363Z,1.30
2023-02-22T00:21:18.715Z,1.20
2023-02-22T00:23:48.210Z,1.20
2023-02-22T00:26:19.258Z,1.20
2023-02-22T00:28:49.259Z,1.20
2023-02-22T00:31:32.661Z,1.20
2023-02-22T00:34:00.638Z,1.10
2023-02-22T00:36:29.742Z,1.10
2023-02-22T00:38:57.751Z,1.10
2023-02-22T00:41:26.091Z,1.00
2023-02-22T00:43:54.874Z,1.10
2023-02-22T00:46:22.860Z,1.00
2023-02-22T00:48:53.019Z,1.00
2023-02-22T00:51:20.981Z,1.00
2023-02-22T00:53:49.569Z,0.90
2023-02-22T00:56:41.189Z,0.90
2023-02-22T00:59:09.163Z,0.90
2023-02-22T01:01:37.683Z,0.80
2023-02-22T01:04:07.305Z,0.90
2023-02-22T01:06:35.526Z,0.80
2023-02-22T01:09:04.365Z,0.80
2023-02-22T01:11:32.373Z,0.80
2023-02-22T01:14:00.483Z,0.80
2023-02-22T01:16:28.732Z,0.80
2023-02-22T01:19:00.480Z,0.80
2023-02-22T01:21:29.832Z,0.70
2023-02-22T01:23:57.800Z,0.80
2023-02-22T01:26:26.045Z,0.80
2023-02-22T01:28:54.290Z,0.80
2023-02-22T01:31:25.964Z,0.80
2023-02-22T01:33:55.513Z,0.80
2023-02-22T01:36:23.670Z,0.80
2023-02-22T01:38:53.204Z,0.70
2023-02-22T01:41:22.620Z,0.70
2023-02-22T01:43:50.563Z,0.60
2023-02-22T01:46:24.216Z,0.60
2023-02-22T01:48:55.890Z,0.60
2023-02-22T01:51:27.803Z,0.50
2023-02-22T01:54:00.330Z,0.60
2023-02-22T01:56:30.146Z,0.60
2023-02-22T01:59:01.518Z,0.60
2023-02-22T02:01:30.686Z,0.50
2023-02-22T02:04:01.325Z,0.50
2023-02-22T02:06:32.949Z,0.50
2023-02-22T02:09:06.649Z,0.50
2023-02-22T02:11:35.352Z,0.40
2023-02-22T02:14:03.325Z,0.40
2023-02-22T02:16:41.111Z,0.40
2023-02-22T02:19:17.016Z,0.30
2023-02-22T02:22:14.142Z,0.20
2023-02-22T02:25:12.000Z,0.20
2023-02-22T02:31:04.138Z,0.10
2023-02-22T02:33:35.691Z,0.00
2023-02-22T02:36:09.103Z,0.00
2023-02-22T02:38:44.571Z,0.00
2023-02-22T02:41:17.717Z,-0.10
2023-02-22T02:43:52.933Z,-0.10
2023-02-22T02:46:25.566Z,-0.10
2023-02-22T02:48:58.368Z,-0.10
2023-02-22T02:51:32.223Z,0.00
2023-02-22T02:54:02.747Z,0.20
2023-02-22T02:56:31.025Z,0.10
2023-02-22T02:58:59.025Z,0.10
2023-02-22T03:01:46.222Z,0.10
2023-02-22T03:04:31.342Z,0.10
2023-02-22T03:07:31.716Z,0.10
2023-02-22T03:10:13.177Z,0.20
2023-02-22T03:12:50.041Z,0.10
2023-02-22T03:15:32.463Z,0.10
2023-02-22T03:18:07.244Z,0.10
2023-02-22T03:20:45.352Z,0.20
2023-02-22T03:23:24.765Z,0.20
2023-02-22T03:25:55.916Z,0.10
2023-02-22T03:28:27.421Z,0.20
2023-02-22T03:31:00.853Z,0.20
2023-02-22T03:33:36.275Z,0.10
2023-02-22T03:36:13.370Z,0.10
2023-02-22T03:38:43.423Z,0.10
2023-02-22T03:41:12.564Z,0.20
2023-02-22T03:43:44.620Z,0.20
2023-02-22T03:46:15.026Z,0.20
2023-02-22T03:48:48.096Z,0.20
2023-02-22T03:51:19.187Z,0.10
2023-02-22T03:53:48.011Z,0.10
2023-02-22T03:56:21.708Z,0.10
2023-02-22T03:58:51.279Z,0.00
2023-02-22T04:01:23.808Z,0.00
2023-02-22T04:03:51.857Z,0.00
2023-02-22T04:06:21.932Z,0.00
2023-02-22T04:08:50.127Z,0.00
2023-02-22T04:11:18.350Z,0.00
2023-02-22T04:13:46.430Z,0.00
2023-02-22T04:16:14.496Z,-0.10
2023-02-22T04:18:43.827Z,-0.10
2023-02-22T04:21:11.835Z,-0.10
2023-02-22T04:23:41.213Z,-0.10
2023-02-22T04:26:09.180Z,-0.10
2023-02-22T04:28:37.157Z,-0.10
2023-02-22T04:31:12.527Z,-0.20
2023-02-22T04:33:40.584Z,-0.30
2023-02-22T04:36:10.731Z,-0.30
2023-02-22T04:38:40.124Z,-0.40
2023-02-22T04:41:08.262Z,-0.30
2023-02-22T04:43:36.305Z,-0.40
2023-02-22T04:46:04.846Z,-0.40
2023-02-22T04:48:33.012Z,-0.50
2023-02-22T04:51:01.268Z,-0.40
2023-02-22T04:53:29.244Z,-0.50
2023-02-22T04:55:58.799Z,-0.50
2023-02-22T04:58:27.176Z,-0.60
2023-02-22T05:00:55.182Z,-0.50
2023-02-22T05:03:23.508Z,-0.30
2023-02-22T05:05:53.112Z,-0.30
2023-02-22T05:08:21.154Z,-0.30
2023-02-22T05:10:49.258Z,-0.10
2023-02-22T05:13:18.596Z,-0.10
2023-02-22T05:15:47.827Z,-0.10
2023-02-22T05:18:15.973Z,-0.10
2023-02-22T05:20:43.959Z,-0.10
2023-02-22T05:23:12.009Z,0.00
2023-02-22T05:25:40.047Z,0.00
2023-02-22T05:28:13.672Z,0.00
2023-02-22T05:30:43.096Z,-0.10
2023-02-22T05:33:11.753Z,0.00
2023-02-22T05:35:40.314Z,0.00
2023-02-22T05:38:08.725Z,0.10
2023-02-22T05:40:36.713Z,0.10
2023-02-22T05:43:04.698Z,0.20
2023-02-22T05:45:32.697Z,0.20
2023-02-22T05:48:02.453Z,0.20
2023-02-22T05:50:30.484Z,0.20
2023-02-22T05:52:58.440Z,0.20
2023-02-22T05:55:26.522Z,0.30
2023-02-22T05:57:55.048Z,0.30
2023-02-22T06:00:25.202Z,0.20
2023-02-22T06:02:57.807Z,0.20
2023-02-22T06:05:27.542Z,0.30
2023-02-22T06:07:55.841Z,0.30
2023-02-22T06:10:24.750Z,0.40
2023-02-22T06:12:53.372Z,0.40
2023-02-22T06:15:23.079Z,0.40
2023-02-22T06:17:52.021Z,0.40
2023-02-22T06:20:22.585Z,0.50
2023-02-22T06:22:54.734Z,0.40
2023-02-22T06:25:24.969Z,0.50
2023-02-22T06:27:52.981Z,0.40
2023-02-22T06:30:23.071Z,0.40
2023-02-22T06:32:51.049Z,0.40
2023-02-22T06:35:19.817Z,0.40
2023-02-22T06:37:47.908Z,0.60
2023-02-22T06:40:37.144Z,0.50
2023-02-22T06:43:12.456Z,0.70
2023-02-22T06:45:43.625Z,0.70
2023-02-22T06:48:11.603Z,0.80
2023-02-22T06:50:39.840Z,0.90
2023-02-22T06:53:07.988Z,0.90
2023-02-22T06:55:37.616Z,1.00
2023-02-22T06:58:06.402Z,1.10
2023-02-22T07:00:34.894Z,1.20
2023-02-22T07:03:04.909Z,1.20
2023-02-22T07:05:32.994Z,1.20
2023-02-22T07:08:05.966Z,1.30
2023-02-22T07:10:35.949Z,1.30
2023-02-22T07:13:06.965Z,1.40
2023-02-22T07:15:36.474Z,1.50
2023-02-22T07:18:05.578Z,1.50
2023-02-22T07:20:34.576Z,1.70
2023-02-22T07:23:03.173Z,1.70
2023-02-22T07:25:31.202Z,1.90
2023-02-22T07:27:59.569Z,2.00
2023-02-22T07:30:31.605Z,2.00
2023-02-22T07:33:01.198Z,2.10
2023-02-22T07:35:30.853Z,2.20
2023-02-22T07:37:59.210Z,2.20
2023-02-22T07:40:28.759Z,2.30
2023-02-22T07:42:59.399Z,2.30
2023-02-22T07:45:30.360Z,2.50
2023-02-22T07:47:58.978Z,2.60
2023-02-22T07:50:30.101Z,2.70
2023-02-22T07:52:59.877Z,2.80
2023-02-22T07:55:29.696Z,2.90
2023-02-22T07:58:00.042Z,3.10
2023-02-22T08:00:31.110Z,3.10
2023-02-22T08:03:00.591Z,3.30
2023-02-22T08:05:30.147Z,3.40
2023-02-22T08:07:58.488Z,3.50
2023-02-22T08:10:28.070Z,3.70
2023-02-22T08:13:06.091Z,3.80
2023-02-22T08:15:37.499Z,3.90
2023-02-22T08:18:09.107Z,4.10
2023-02-22T08:20:37.806Z,4.20
2023-02-22T08:23:06.299Z,4.30
2023-02-22T08:25:34.471Z,4.30
2023-02-22T08:28:04.597Z,4.50
2023-02-22T08:30:34.909Z,4.50
2023-02-22T08:33:08.933Z,4.60
2023-02-22T08:35:37.549Z,4.70
2023-02-22T08:38:07.193Z,4.80
2023-02-22T08:40:39.456Z,5.10
2023-02-22T08:43:07.603Z,5.20
2023-02-22T08:45:42.604Z,5.20
2023-02-22T08:48:12.225Z,5.40
2023-02-22T08:50:41.734Z,5.50
2023-02-22T08:53:11.496Z,5.50
2023-02-22T08:55:40.593Z,5.50
2023-02-22T08:58:10.270Z,5.70
2023-02-22T09:00:39.771Z,5.80
2023-02-22T09:03:09.960Z,5.90
2023-02-22T09:05:39.414Z,5.80
2023-02-22T09:08:07.531Z,6.10
2023-02-22T09:10:36.415Z,6.50
2023-02-22T09:13:04.997Z,6.70
2023-02-22T09:15:35.920Z,6.90
2023-02-22T09:18:04.820Z,7.00
2023-02-22T09:20:32.800Z,7.00
2023-02-22T09:23:03.428Z,7.00
2023-02-22T09:25:32.715Z,7.20
2023-02-22T09:28:00.950Z,7.30
2023-02-22T09:30:32.925Z,7.50
2023-02-22T09:33:10.004Z,7.50
2023-02-22T09:35:42.156Z,7.70
2023-02-22T09:38:12.289Z,8.10
2023-02-22T09:40:45.933Z,8.50
2023-02-22T09:43:24.808Z,8.40
2023-02-22T09:46:12.074Z,8.80
2023-02-22T09:48:58.183Z,8.80
2023-02-22T09:51:29.849Z,8.80
2023-02-22T09:54:03.420Z,8.90
2023-02-22T09:56:34.521Z,8.80
2023-02-22T09:59:07.187Z,8.90
2023-02-22T10:01:41.071Z,8.50
2023-02-22T10:04:18.654Z,8.50
2023-02-22T10:07:02.044Z,8.50
2023-02-22T10:09:37.592Z,8.80
2023-02-22T10:12:12.739Z,8.70
2023-02-22T10:14:57.501Z,8.20
2023-02-22T10:17:37.878Z,8.70
2023-02-22T10:20:21.972Z,8.90
2023-02-22T10:23:14.637Z,9.20
2023-02-22T10:25:54.433Z,9.30
2023-02-22T10:28:25.712Z,9.20
2023-02-22T10:30:59.148Z,9.20
2023-02-22T10:33:32.141Z,9.30
2023-02-22T10:36:07.734Z,9.50
2023-02-22T10:38:43.144Z,9.90
2023-02-22T10:41:22.118Z,10.10
2023-02-22T10:43:50.338Z,10.50
2023-02-22T10:46:21.460Z,11.00
2023-02-22T10:48:54.386Z,11.10
2023-02-22T10:51:22.864Z,11.10
2023-02-22T10:54:12.345Z,11.00
2023-02-22T10:56:48.976Z,10.90
2023-02-22T10:59:43.100Z,11.10
2023-02-22T11:02:21.615Z,11.30
2023-02-22T11:04:52.054Z,11.40
2023-02-22T11:07:27.156Z,11.10
2023-02-22T11:09:57.850Z,11.20
2023-02-22T11:12:33.758Z,11.30
2023-02-22T11:15:29.519Z,11.50
2023-02-22T11:18:01.823Z,11.60
2023-02-22T11:20:34.562Z,11.60
2023-02-22T11:23:09.060Z,11.80
2023-02-22T11:25:42.422Z,11.90
2023-02-22T11:28:32.863Z,12.00
2023-02-22T11:31:12.912Z,11.90
2023-02-22T11:34:26.009Z,12.40
2023-02-22T11:37:22.239Z,12.60
2023-02-22T11:40:21.798Z,13.20
2023-02-22T11:43:08.350Z,13.30
2023-02-22T11:46:17.442Z,13.70
2023-02-22T11:48:57.090Z,13.60
2023-02-22T11:51:35.772Z,13.60
2023-02-22T11:54:45.064Z,13.60
2023-02-22T11:57:28.737Z,13.90
2023-02-22T12:00:12.231Z,13.70
2023-02-22T12:03:07.483Z,13.60
2023-02-22T12:06:00.482Z,13.60
2023-02-22T12:08:36.656Z,13.10
2023-02-22T12:11:18.397Z,13.50
2023-02-22T12:14:05.547Z,13.50
2023-02-22T12:16:44.822Z,13.50
2023-02-22T12:19:22.165Z,13.50
2023-02-22T12:21:55.880Z,13.80
2023-02-22T12:24:28.227Z,13.40
2023-02-22T12:27:06.461Z,13.60
2023-02-22T12:29:40.263Z,13.90
2023-02-22T12:32:14.040Z,13.80
2023-02-22T12:34:46.299Z,14.10
2023-02-22T12:37:22.177Z,14.20
2023-02-22T12:40:08.243Z,14.30
2023-02-22T12:42:51.493Z,14.00
2023-02-22T12:45:29.359Z,13.70
2023-02-22T12:48:07.217Z,13.70
2023-02-22T12:50:36.454Z,13.70
2023-02-22T12:53:15.156Z,13.60
2023-02-22T12:55:48.650Z,13.50
2023-02-22T12:58:25.836Z,13.60
2023-02-22T13:01:01.492Z,13.50
2023-02-22T13:03:35.874Z,13.70
2023-02-22T13:06:25.311Z,14.10
2023-02-22T13:09:07.709Z,14.20
2023-02-22T13:11:44.315Z,14.10
2023-02-22T13:14:39.522Z,14.20
2023-02-22T13:17:20.740Z,14.20
2023-02-22T13:19:56.157Z,14.20
2023-02-22T13:22:33.314Z,13.90
2023-02-22T13:25:09.417Z,13.90
2023-02-22T13:27:43.933Z,13.80
2023-02-22T13:30:20.990Z,13.90
2023-02-22T13:33:16.485Z,14.00
2023-02-22T13:36:12.599Z,14.20
2023-02-22T13:39:13.248Z,14.50
2023-02-22T13:41:57.501Z,14.40
2023-02-22T13:44:43.943Z,14.80
2023-02-22T13:47:30.785Z,14.80
2023-02-22T13:50:34.703Z,15.00
2023-02-22T13:53:07.906Z,15.30
2023-02-22T13:55:39.967Z,15.20
2023-02-22T13:58:11.719Z,15.10
2023-02-22T14:00:48.501Z,15.10
2023-02-22T14:03:40.566Z,15.10
2023-02-22T14:06:32.425Z,15.30
2023-02-22T14:09:01.341Z,15.40
2023-02-22T14:11:56.675Z,15.60
2023-02-22T14:14:26.239Z,15.70
2023-02-22T14:17:30.552Z,15.70
2023-02-22T14:20:14.740Z,15.50
2023-02-22T14:22:45.633Z,15.30
2023-02-22T14:25:33.703Z,15.40
2023-02-22T14:28:03.856Z,15.50
2023-02-22T14:30:35.994Z,15.40
2023-02-22T14:33:04.049Z,15.50
2023-02-22T14:35:49.500Z,15.40
2023-02-22T14:38:20.885Z,15.50
2023-02-22T14:40:52.017Z,15.50
2023-02-22T14:43:23.545Z,15.40
2023-02-22T14:45:56.039Z,15.30
2023-02-22T14:48:29.420Z,15.30
2023-02-22T14:51:05.900Z,15.40
2023-02-22T14:53:45.042Z,15.40
2023-02-22T14:56:21.049Z,15.40
2023-02-22T14:58:54.918Z,15.20
2023-02-22T15:01:47.315Z,15.20
2023-02-22T15:04:21.819Z,15.20
2023-02-22T15:06:59.977Z,15.10
2023-02-22T15:09:31.704Z,15.10
2023-02-22T15:12:13.979Z,15.10
2023-02-22T15:14:44.661Z,15.00
2023-02-22T15:17:19.174Z,15.00
2023-02-22T15:19:49.579Z,15.00
2023-02-22T15:22:22.641Z,15.00
2023-02-22T15:25:00.146Z,15.10
2023-02-22T15:27:28.771Z,15.00
2023-02-22T15:30:04.447Z,15.00
2023-02-22T15:32:36.961Z,14.90
2023-02-22T15:35:18.048Z,14.80
2023-02-22T15:37:46.998Z,14.50
2023-02-22T15:40:18.768Z,14.40
2023-02-22T15:42:48.586Z,14.20
2023-02-22T15:45:20.232Z,14.10
2023-02-22T15:47:51.152Z,13.90
2023-02-22T15:50:23.725Z,13.90
2023-02-22T15:52:58.212Z,14.00
2023-02-22T15:55:30.157Z,14.00
2023-02-22T15:58:01.604Z,13.80
2023-02-22T16:00:36.976Z,13.60
2023-02-22T16:03:09.297Z,13.60
2023-02-22T16:05:42.204Z,13.50
2023-02-22T16:08:18.410Z,13.30
2023-02-22T16:10:54.471Z,13.30
2023-02-22T16:13:32.144Z,13.20
2023-02-22T16:16:03.928Z,13.10
2023-02-22T16:18:36.192Z,13.00
2023-02-22T16:21:11.769Z,13.00
2023-02-22T16:23:47.887Z,13.00
2023-02-22T16:26:30.037Z,12.90
2023-02-22T16:29:00.363Z,12.80
2023-02-22T16:31:32.073Z,12.70
2023-02-22T16:34:02.569Z,12.60
2023-02-22T16:36:40.724Z,12.50
2023-02-22T16:39:11.899Z,12.30
2023-02-22T16:41:39.884Z,12.20
2023-02-22T16:44:08.655Z,12.10
2023-02-22T16:46:38.300Z,12.10
2023-02-22T16:49:07.980Z,12.00
2023-02-22T16:51:42.608Z,11.90
2023-02-22T16:54:13.740Z,11.90
2023-02-22T16:56:42.224Z,11.70
2023-02-22T16:59:14.617Z,11.60
2023-02-22T17:01:43.006Z,11.60
2023-02-22T17:04:17.911Z,11.50
2023-02-22T17:06:46.190Z,11.40
2023-02-22T17:09:15.192Z,11.40
2023-02-22T17:11:44.583Z,11.30
2023-02-22T17:14:17.598Z,11.20
2023-02-22T17:16:47.142Z,11.10
2023-02-22T17:19:19.298Z,11.10
2023-02-22T17:21:47.865Z,11.00
2023-02-22T17:24:18.009Z,11.00
2023-02-22T17:26:45.979Z,10.90
2023-02-22T17:29:15.288Z,10.80
2023-02-22T17:31:43.624Z,10.80
2023-02-22T17:34:11.661Z,10.70
2023-02-22T17:36:42.017Z,10.80
2023-02-22T17:39:10.961Z,10.70
2023-02-22T17:41:40.565Z,10.70
2023-02-22T17:44:09.025Z,10.60
2023-02-22T17:46:37.151Z,10.60
2023-02-22T17:49:05.137Z,10.50
2023-02-22T17:51:33.121Z,10.50
2023-02-22T17:54:02.419Z,10.40
2023-02-22T17:56:30.383Z,10.40
2023-02-22T17:58:58.577Z,10.30
2023-02-22T18:01:28.977Z,10.30
2023-02-22T18:03:58.861Z,10.30
2023-02-22T18:06:28.606Z,10.20
2023-02-22T18:08:57.416Z,10.20
2023-02-22T18:11:28.709Z,10.00
2023-02-22T18:13:59.277Z,10.00
2023-02-22T18:16:28.003Z,9.90
2023-02-22T18:18:57.024Z,9.80
2023-02-22T18:21:26.769Z,9.60
2023-02-22T18:23:55.230Z,9.60
2023-02-22T18:26:25.655Z,9.50
2023-02-22T18:28:55.451Z,9.40
2023-02-22T18:31:24.448Z,9.40
2023-02-22T18:33:53.828Z,9.40
2023-02-22T18:36:22.974Z,9.40
2023-02-22T18:38:52.611Z,9.30
2023-02-22T18:41:25.140Z,9.30
2023-02-22T18:43:57.549Z,9.20
2023-02-22T18:46:26.139Z,9.20
2023-02-22T18:48:55.462Z,9.10
2023-02-22T18:51:24.461Z,9.10
2023-02-22T18:53:56.816Z,9.20
2023-02-22T18:56:29.583Z,9.20
2023-02-22T18:59:01.192Z,9.20
2023-02-22T19:01:29.578Z,9.20
2023-02-22T19:03:57.631Z,9.30
2023-02-22T19:06:25.873Z,9.40
2023-02-22T19:08:53.958Z,9.40
2023-02-22T19:11:25.119Z,9.30
2023-02-22T19:13:55.156Z,9.20
2023-02-22T19:16:27.737Z,9.20
2023-02-22T19:18:57.986Z,9.20
2023-02-22T19:21:27.532Z,9.10
2023-02-22T19:23:55.489Z,9.10
2023-02-22T19:26:26.275Z,9.00
2023-02-22T19:28:56.374Z,9.00
2023-02-22T19:31:30.599Z,9.00
2023-02-22T19:34:01.794Z,9.00
2023-02-22T19:36:30.075Z,9.00
2023-02-22T19:39:01.569Z,9.00
2023-02-22T19:41:30.602Z,9.00
2023-02-22T19:43:59.169Z,9.00
2023-02-22T19:46:28.609Z,8.90
2023-02-22T19:48:57.138Z,8.90
2023-02-22T19:51:27.761Z,8.90
2023-02-22T19:53:57.905Z,9.00
2023-02-22T19:56:27.124Z,9.10
2023-02-22T19:58:56.686Z,9.10
2023-02-22T20:01:26.126Z,9.00
2023-02-22T20:03:59.815Z,8.90
2023-02-22T20:06:29.757Z,8.90
2023-02-22T20:08:58.891Z,8.70
2023-02-22T20:11:27.631Z,8.60
2023-02-22T20:13:56.774Z,8.60
2023-02-22T20:16:25.484Z,8.60
2023-02-22T20:18:56.040Z,8.50
2023-02-22T20:21:27.845Z,8.50
2023-02-22T20:23:57.210Z,8.50
2023-02-22T20:26:27.508Z,8.40
2023-02-22T20:28:56.302Z,8.40
2023-02-22T20:31:25.137Z,8.30
2023-02-22T20:33:57.301Z,8.30
2023-02-22T20:36:26.202Z,8.20
2023-02-22T20:38:55.074Z,8.20
2023-02-22T20:41:25.845Z,8.20
2023-02-22T20:43:55.291Z,8.10
2023-02-22T20:46:24.699Z,8.30
2023-02-22T20:48:56.666Z,8.20
2023-02-22T20:51:25.565Z,8.20
2023-02-22T20:53:53.595Z,8.20
2023-02-22T20:56:23.239Z,8.30
2023-02-22T20:58:52.189Z,8.30
2023-02-22T21:01:22.448Z,8.30
2023-02-22T21:03:51.424Z,8.30
2023-02-22T21:06:22.317Z,8.30
2023-02-22T21:08:54.727Z,8.30
2023-02-22T21:11:24.540Z,8.30
2023-02-22T21:13:52.792Z,8.30
2023-02-22T21:16:24.113Z,8.40
2023-02-22T21:18:52.786Z,8.40
2023-02-22T21:21:22.593Z,8.40
2023-02-22T21:23:52.653Z,8.40
2023-02-22T21:26:23.991Z,8.60
2023-02-22T21:28:52.413Z,8.70
2023-02-22T21:31:22.241Z,8.70
2023-02-22T21:33:52.143Z,8.80
2023-02-22T21:36:25.304Z,8.90
2023-02-22T21:38:55.385Z,8.90
2023-02-22T21:41:27.555Z,9.00
2023-02-22T21:43:57.200Z,9.10
2023-02-22T21:46:25.683Z,9.10
2023-02-22T21:48:53.882Z,9.20
2023-02-22T21:51:25.272Z,9.30
2023-02-22T21:53:54.813Z,9.30
2023-02-22T21:56:27.456Z,9.30
2023-02-22T21:58:59.084Z,9.40
2023-02-22T22:01:28.402Z,9.40
2023-02-22T22:03:59.609Z,9.40
2023-02-22T22:06:30.164Z,9.40
2023-02-22T22:08:59.810Z,9.40
2023-02-22T22:11:30.615Z,9.50
2023-02-22T22:13:59.766Z,9.50
2023-02-22T22:16:30.254Z,9.60
2023-02-22T22:18:58.876Z,9.60
2023-02-22T22:21:28.713Z,9.70
2023-02-22T22:23:57.374Z,9.70
2023-02-22T22:26:27.270Z,9.70
2023-02-22T22:28:58.854Z,9.70
2023-02-22T22:31:28.209Z,9.70
2023-02-22T22:33:58.690Z,9.60
2023-02-22T22:36:28.829Z,9.60
2023-02-22T22:38:58.348Z,9.60
2023-02-22T22:41:28.846Z,9.50
2023-02-22T22:43:57.358Z,9.50
2023-02-22T22:46:25.398Z,9.30
2023-02-22T22:48:53.455Z,9.20
2023-02-22T22:51:22.375Z,9.00
2023-02-22T22:53:52.984Z,8.90
2023-02-22T22:56:26.349Z,8.90
2023-02-22T22:58:56.705Z,8.90
2023-02-22T23:01:32.551Z,9.00
2023-02-22T23:04:02.377Z,8.90
2023-02-22T23:06:32.951Z,8.90
2023-02-22T23:09:10.381Z,8.90
2023-02-22T23:11:44.206Z,9.00
2023-02-22T23:14:13.891Z,8.90
2023-02-22T23:16:42.770Z,8.90
2023-02-22T23:19:11.032Z,8.90
2023-02-22T23:21:42.696Z,8.80
2023-02-22T23:24:15.449Z,8.80
2023-02-22T23:26:48.313Z,8.70
2023-02-22T23:29:16.889Z,8.70
2023-02-22T23:31:48.078Z,8.60
2023-02-22T23:34:16.933Z,8.60
2023-02-22T23:36:45.328Z,8.60
2023-02-22T23:39:16.339Z,8.50
2023-02-22T23:41:44.429Z,8.50
2023-02-22T23:44:17.348Z,8.50
2023-02-22T23:46:48.084Z,8.50
2023-02-22T23:49:20.004Z,8.60
2023-02-22T23:51:48.468Z,8.60
2023-02-22T23:54:20.596Z,8.60
2023-02-22T23:56:56.430Z,8.60
2023-02-22T23:59:25.717Z,8.60
